createdAt,value
2022-11-02T00:00:42.104Z,97.35
2022-11-02T00:01:42.105Z,97.35
2022-11-02T00:02:42.090Z,97.35
2022-11-02T00:03:42.105Z,97.35
2022-11-02T00:04:42.105Z,97.35
2022-11-02T00:05:42.105Z,97.35
2022-11-02T00:06:42.091Z,97.35
2022-11-02T00:07:42.104Z,97.36
2022-11-02T00:08:42.105Z,97.35
2022-11-02T00:09:42.105Z,97.35
2022-11-02T00:10:42.091Z,97.35
2022-11-02T00:11:42.106Z,97.35
2022-11-02T00:12:42.107Z,97.35
2022-11-02T00:13:42.106Z,97.35
2022-11-02T00:14:42.092Z,97.35
2022-11-02T00:15:42.106Z,97.35
2022-11-02T00:16:42.107Z,97.35
2022-11-02T00:17:42.093Z,97.35
2022-11-02T00:18:42.093Z,97.35
2022-11-02T00:19:42.108Z,97.36
2022-11-02T00:20:42.108Z,97.36
2022-11-02T00:21:42.093Z,97.36
2022-11-02T00:22:42.094Z,97.36
2022-11-02T00:23:42.108Z,97.36
2022-11-02T00:24:42.132Z,97.35
2022-11-02T00:25:42.094Z,97.36
2022-11-02T00:26:42.108Z,97.36
2022-11-02T00:27:42.109Z,97.35
2022-11-02T00:28:42.108Z,97.36
2022-11-02T00:29:42.095Z,97.35
2022-11-02T00:30:42.110Z,97.36
2022-11-02T00:31:42.160Z,97.36
2022-11-02T00:32:42.110Z,97.36
2022-11-02T00:33:42.097Z,97.36
2022-11-02T00:34:42.110Z,97.36
2022-11-02T00:35:42.111Z,97.36
2022-11-02T00:36:42.110Z,97.36
2022-11-02T00:37:42.097Z,97.36
2022-11-02T00:38:42.119Z,97.36
2022-11-02T00:39:42.113Z,97.36
2022-11-02T00:40:42.097Z,97.37
2022-11-02T00:41:42.097Z,97.37
2022-11-02T00:42:42.112Z,97.37
2022-11-02T00:43:42.113Z,97.37
2022-11-02T00:44:42.098Z,97.36
2022-11-02T00:45:42.113Z,97.37
2022-11-02T00:46:42.112Z,97.37
2022-11-02T00:47:42.113Z,97.37
2022-11-02T00:48:42.099Z,97.37
2022-11-02T00:49:42.113Z,97.36
2022-11-02T00:50:42.113Z,97.36
2022-11-02T00:51:42.114Z,97.37
2022-11-02T00:52:42.099Z,97.37
2022-11-02T00:53:42.113Z,97.37
2022-11-02T00:54:47.876Z,97.37
2022-11-02T00:55:42.114Z,97.37
2022-11-02T00:56:42.100Z,97.37
2022-11-02T00:57:42.114Z,97.37
2022-11-02T00:58:42.116Z,97.37
2022-11-02T00:59:42.115Z,97.37
2022-11-02T01:00:42.101Z,97.37
2022-11-02T01:01:42.115Z,97.37
2022-11-02T01:02:42.117Z,97.37
2022-11-02T01:03:42.101Z,97.37
2022-11-02T01:04:42.102Z,97.37
2022-11-02T01:05:42.116Z,97.37
2022-11-02T01:06:42.117Z,97.38
2022-11-02T01:07:42.102Z,97.37
2022-11-02T01:08:42.141Z,97.37
2022-11-02T01:09:42.117Z,97.38
2022-11-02T01:10:42.117Z,97.37
2022-11-02T01:11:42.103Z,97.37
2022-11-02T01:12:42.118Z,97.37
2022-11-02T01:13:42.118Z,97.37
2022-11-02T01:14:42.118Z,97.37
2022-11-02T01:15:42.104Z,97.37
2022-11-02T01:16:42.119Z,97.37
2022-11-02T01:17:42.119Z,97.37
2022-11-02T01:18:42.118Z,97.37
2022-11-02T01:19:42.104Z,97.37
2022-11-02T01:20:42.119Z,97.37
2022-11-02T01:21:42.120Z,97.37
2022-11-02T01:22:42.120Z,97.37
2022-11-02T01:23:42.105Z,97.37
2022-11-02T01:24:42.120Z,97.37
2022-11-02T01:25:42.120Z,97.37
2022-11-02T01:26:42.106Z,97.37
2022-11-02T01:27:42.106Z,97.37
2022-11-02T01:28:42.121Z,97.38
2022-11-02T01:29:42.121Z,97.38
2022-11-02T01:30:42.106Z,97.37
2022-11-02T01:31:42.121Z,97.38
2022-11-02T01:32:42.121Z,97.37
2022-11-02T01:33:42.121Z,97.38
2022-11-02T01:34:42.107Z,97.38
2022-11-02T01:35:42.122Z,97.38
2022-11-02T01:36:42.121Z,97.38
2022-11-02T01:37:42.121Z,97.38
2022-11-02T01:38:42.121Z,97.37
2022-11-02T01:39:42.123Z,97.37
2022-11-02T01:40:42.124Z,97.38
2022-11-02T01:41:42.123Z,97.38
2022-11-02T01:42:42.108Z,97.37
2022-11-02T01:43:42.123Z,97.37
2022-11-02T01:44:42.123Z,97.37
2022-11-02T01:45:42.109Z,97.37
2022-11-02T01:46:42.109Z,97.37
2022-11-02T01:47:42.124Z,97.37
2022-11-02T01:48:42.125Z,97.37
2022-11-02T01:49:42.110Z,97.37
2022-11-02T01:50:42.111Z,97.37
2022-11-02T01:51:42.125Z,97.37
2022-11-02T01:52:42.133Z,97.37
2022-11-02T01:53:42.110Z,97.37
2022-11-02T01:54:45.639Z,97.37
2022-11-02T01:55:42.125Z,97.38
2022-11-02T01:56:42.125Z,97.37
2022-11-02T01:57:42.111Z,97.37
2022-11-02T01:58:42.126Z,97.36
2022-11-02T01:59:42.126Z,97.36
2022-11-02T02:00:42.126Z,97.37
2022-11-02T02:01:42.112Z,97.37
2022-11-02T02:02:42.127Z,97.37
2022-11-02T02:03:42.127Z,97.36
2022-11-02T02:04:42.127Z,97.36
2022-11-02T02:05:42.113Z,97.36
2022-11-02T02:06:42.127Z,97.36
2022-11-02T02:07:42.129Z,97.37
2022-11-02T02:08:42.128Z,97.36
2022-11-02T02:09:42.113Z,97.36
2022-11-02T02:10:42.128Z,97.36
2022-11-02T02:11:42.128Z,97.37
2022-11-02T02:12:42.114Z,97.37
2022-11-02T02:13:42.114Z,97.37
2022-11-02T02:14:42.129Z,97.36
2022-11-02T02:15:42.130Z,97.36
2022-11-02T02:16:42.114Z,97.36
2022-11-02T02:17:42.129Z,97.36
2022-11-02T02:18:42.130Z,97.36
2022-11-02T02:19:42.130Z,97.36
2022-11-02T02:20:42.116Z,97.36
2022-11-02T02:21:42.130Z,97.36
2022-11-02T02:22:42.130Z,97.36
2022-11-02T02:23:42.130Z,97.36
2022-11-02T02:24:42.116Z,97.36
2022-11-02T02:25:42.131Z,97.37
2022-11-02T02:26:42.131Z,97.36
2022-11-02T02:27:42.131Z,97.37
2022-11-02T02:28:42.117Z,97.36
2022-11-02T02:29:42.132Z,97.36
2022-11-02T02:30:42.133Z,97.36
2022-11-02T02:31:42.117Z,97.36
2022-11-02T02:32:42.117Z,97.36
2022-11-02T02:33:42.131Z,97.36
2022-11-02T02:34:42.132Z,97.36
2022-11-02T02:35:42.118Z,97.35
2022-11-02T02:36:42.118Z,97.35
2022-11-02T02:37:42.133Z,97.35
2022-11-02T02:38:42.133Z,97.35
2022-11-02T02:39:42.119Z,97.34
2022-11-02T02:40:42.133Z,97.34
2022-11-02T02:41:42.134Z,97.34
2022-11-02T02:42:42.133Z,97.34
2022-11-02T02:43:42.119Z,97.34
2022-11-02T02:44:42.134Z,97.34
2022-11-02T02:45:42.176Z,97.34
2022-11-02T02:46:42.135Z,97.34
2022-11-02T02:47:42.120Z,97.34
2022-11-02T02:48:42.134Z,97.34
2022-11-02T02:49:42.135Z,97.34
2022-11-02T02:50:42.135Z,97.33
2022-11-02T02:51:42.122Z,97.34
2022-11-02T02:52:42.143Z,97.33
2022-11-02T02:53:42.137Z,97.34
2022-11-02T02:54:50.355Z,97.34
2022-11-02T02:55:42.122Z,97.34
2022-11-02T02:56:42.136Z,97.34
2022-11-02T02:57:42.137Z,97.34
2022-11-02T02:58:42.122Z,97.34
2022-11-02T02:59:42.177Z,97.34
2022-11-02T03:00:42.137Z,97.34
2022-11-02T03:01:42.136Z,97.33
2022-11-02T03:02:42.123Z,97.34
2022-11-02T03:03:42.137Z,97.34
2022-11-02T03:04:50.371Z,97.33
2022-11-02T03:05:42.138Z,97.33
2022-11-02T03:06:42.123Z,97.33
2022-11-02T03:07:42.138Z,97.33
2022-11-02T03:08:42.138Z,97.33
2022-11-02T03:09:42.138Z,97.33
2022-11-02T03:10:42.124Z,97.33
2022-11-02T03:11:42.138Z,97.33
2022-11-02T03:12:42.140Z,97.32
2022-11-02T03:13:42.138Z,97.32
2022-11-02T03:14:50.359Z,97.32
2022-11-02T03:15:42.140Z,97.32
2022-11-02T03:16:42.140Z,97.31
2022-11-02T03:17:42.140Z,97.31
2022-11-02T03:18:42.126Z,97.31
2022-11-02T03:19:42.139Z,97.32
2022-11-02T03:20:42.142Z,97.32
2022-11-02T03:21:42.126Z,97.31
2022-11-02T03:22:42.126Z,97.31
2022-11-02T03:23:42.141Z,97.31
2022-11-02T03:24:42.141Z,97.31
2022-11-02T03:25:42.127Z,97.31
2022-11-02T03:26:42.141Z,97.31
2022-11-02T03:27:42.142Z,97.31
2022-11-02T03:28:42.142Z,97.31
2022-11-02T03:29:42.127Z,97.31
2022-11-02T03:30:42.141Z,97.31
2022-11-02T03:31:42.142Z,97.32
2022-11-02T03:32:42.143Z,97.32
2022-11-02T03:33:42.128Z,97.32
2022-11-02T03:34:42.142Z,97.33
2022-11-02T03:35:42.143Z,97.33
2022-11-02T03:36:42.143Z,97.33
2022-11-02T03:37:42.129Z,97.34
2022-11-02T03:38:42.143Z,97.34
2022-11-02T03:39:42.145Z,97.34
2022-11-02T03:40:42.129Z,97.33
2022-11-02T03:41:42.130Z,97.34
2022-11-02T03:42:42.144Z,97.34
2022-11-02T03:43:42.145Z,97.34
2022-11-02T03:44:42.130Z,97.34
2022-11-02T03:45:42.130Z,97.34
2022-11-02T03:46:42.144Z,97.33
2022-11-02T03:47:42.153Z,97.34
2022-11-02T03:48:42.131Z,97.34
2022-11-02T03:49:42.146Z,97.34
2022-11-02T03:50:42.146Z,97.34
2022-11-02T03:51:42.145Z,97.34
2022-11-02T03:52:42.132Z,97.33
2022-11-02T03:53:42.146Z,97.34
2022-11-02T03:54:42.196Z,97.33
2022-11-02T03:55:42.147Z,97.33
2022-11-02T03:56:42.133Z,97.33
2022-11-02T03:57:42.146Z,97.33
2022-11-02T03:58:42.148Z,97.33
2022-11-02T03:59:42.147Z,97.33
2022-11-02T04:00:42.134Z,97.33
2022-11-02T04:01:42.147Z,97.34
2022-11-02T04:02:42.148Z,97.33
2022-11-02T04:03:42.133Z,97.33
2022-11-02T04:04:42.134Z,97.33
2022-11-02T04:05:42.148Z,97.33
2022-11-02T04:06:42.149Z,97.33
2022-11-02T04:07:42.134Z,97.33
2022-11-02T04:08:42.149Z,97.33
2022-11-02T04:09:42.149Z,97.32
2022-11-02T04:10:42.148Z,97.33
2022-11-02T04:11:42.135Z,97.33
2022-11-02T04:12:42.150Z,97.33
2022-11-02T04:13:42.150Z,97.33
2022-11-02T04:14:42.150Z,97.34
2022-11-02T04:15:42.135Z,97.34
2022-11-02T04:16:42.150Z,97.34
2022-11-02T04:17:42.150Z,97.34
2022-11-02T04:18:42.150Z,97.33
2022-11-02T04:19:42.136Z,97.33
2022-11-02T04:20:42.151Z,97.34
2022-11-02T04:21:42.151Z,97.34
2022-11-02T04:22:42.137Z,97.34
2022-11-02T04:23:42.137Z,97.34
2022-11-02T04:24:42.152Z,97.35
2022-11-02T04:25:42.153Z,97.35
2022-11-02T04:26:42.137Z,97.34
2022-11-02T04:27:42.138Z,97.34
2022-11-02T04:28:42.152Z,97.35
2022-11-02T04:29:42.201Z,97.35
2022-11-02T04:30:42.138Z,97.35
2022-11-02T04:31:42.152Z,97.35
2022-11-02T04:32:42.152Z,97.35
2022-11-02T04:33:42.153Z,97.36
2022-11-02T04:34:42.139Z,97.35
2022-11-02T04:35:42.154Z,97.35
2022-11-02T04:36:42.179Z,97.35
2022-11-02T04:37:42.153Z,97.35
2022-11-02T04:38:42.140Z,97.35
2022-11-02T04:39:42.154Z,97.35
2022-11-02T04:40:42.156Z,97.35
2022-11-02T04:41:42.155Z,97.35
2022-11-02T04:42:42.140Z,97.35
2022-11-02T04:43:42.218Z,97.35
2022-11-02T04:44:42.155Z,97.35
2022-11-02T04:45:42.141Z,97.35
2022-11-02T04:46:42.141Z,97.35
2022-11-02T04:47:42.156Z,97.35
2022-11-02T04:48:42.156Z,97.35
2022-11-02T04:50:42.142Z,97.35
2022-11-02T04:51:42.157Z,97.36
2022-11-02T04:52:42.156Z,97.36
2022-11-02T04:53:42.142Z,97.36
2022-11-02T04:54:42.157Z,97.36
2022-11-02T04:55:42.157Z,97.36
2022-11-02T04:56:42.156Z,97.36
2022-11-02T04:57:42.143Z,97.36
2022-11-02T04:58:42.157Z,97.36
2022-11-02T04:59:42.208Z,97.36
2022-11-02T05:00:42.158Z,97.37
2022-11-02T05:01:42.144Z,97.36
2022-11-02T05:02:42.158Z,97.37
2022-11-02T05:03:42.160Z,97.36
2022-11-02T05:04:42.158Z,97.36
2022-11-02T05:05:42.144Z,97.36
2022-11-02T05:06:42.206Z,97.36
2022-11-02T05:07:42.160Z,97.36
2022-11-02T05:08:42.145Z,97.36
2022-11-02T05:09:42.146Z,97.36
2022-11-02T05:10:42.159Z,97.36
2022-11-02T05:11:42.161Z,97.36
2022-11-02T05:12:42.146Z,97.36
2022-11-02T05:13:42.161Z,97.36
2022-11-02T05:14:42.161Z,97.37
2022-11-02T05:15:42.160Z,97.36
2022-11-02T05:16:42.146Z,97.36
2022-11-02T05:17:42.160Z,97.36
2022-11-02T05:18:42.161Z,97.36
2022-11-02T05:19:42.161Z,97.36
2022-11-02T05:20:42.148Z,97.36
2022-11-02T05:21:42.162Z,97.36
2022-11-02T05:22:42.163Z,97.36
2022-11-02T05:23:42.161Z,97.36
2022-11-02T05:24:42.148Z,97.36
2022-11-02T05:25:42.163Z,97.36
2022-11-02T05:26:42.163Z,97.36
2022-11-02T05:27:42.148Z,97.36
2022-11-02T05:28:42.149Z,97.36
2022-11-02T05:29:42.164Z,97.37
2022-11-02T05:30:42.164Z,97.36
2022-11-02T05:31:42.149Z,97.36
2022-11-02T05:32:42.150Z,97.37
2022-11-02T05:33:42.164Z,97.37
2022-11-02T05:34:42.171Z,97.37
2022-11-02T05:35:42.150Z,97.37
2022-11-02T05:36:42.165Z,97.37
2022-11-02T05:37:42.165Z,97.37
2022-11-02T05:38:42.165Z,97.37
2022-11-02T05:39:42.151Z,97.37
2022-11-02T05:40:42.165Z,97.37
2022-11-02T05:41:42.191Z,97.37
2022-11-02T05:42:42.165Z,97.37
2022-11-02T05:43:42.151Z,97.37
2022-11-02T05:44:42.166Z,97.37
2022-11-02T05:45:42.167Z,97.37
2022-11-02T05:46:42.166Z,97.37
2022-11-02T05:47:42.153Z,97.37
2022-11-02T05:48:42.231Z,97.38
2022-11-02T05:49:42.168Z,97.37
2022-11-02T05:50:42.153Z,97.37
2022-11-02T05:51:42.153Z,97.38
2022-11-02T05:52:42.168Z,97.38
2022-11-02T05:53:42.168Z,97.37
2022-11-02T05:54:42.153Z,97.38
2022-11-02T05:55:42.168Z,97.38
2022-11-02T05:56:42.168Z,97.38
2022-11-02T05:57:42.169Z,97.38
2022-11-02T05:58:42.154Z,97.38
2022-11-02T05:59:42.168Z,97.38
2022-11-02T06:00:42.169Z,97.38
2022-11-02T06:01:42.168Z,97.38
2022-11-02T06:02:42.155Z,97.38
2022-11-02T06:03:42.169Z,97.39
2022-11-02T06:04:42.170Z,97.39
2022-11-02T06:05:42.170Z,97.39
2022-11-02T06:06:42.156Z,97.39
2022-11-02T06:07:42.170Z,97.39
2022-11-02T06:08:42.171Z,97.39
2022-11-02T06:09:42.171Z,97.39
2022-11-02T06:10:42.156Z,97.4
2022-11-02T06:11:42.171Z,97.4
2022-11-02T06:12:42.172Z,97.4
2022-11-02T06:13:42.157Z,97.4
2022-11-02T06:14:42.157Z,97.4
2022-11-02T06:15:42.172Z,97.4
2022-11-02T06:16:42.172Z,97.4
2022-11-02T06:17:42.158Z,97.4
2022-11-02T06:18:42.172Z,97.4
2022-11-02T06:19:42.172Z,97.39
2022-11-02T06:20:42.173Z,97.39
2022-11-02T06:21:42.158Z,97.39
2022-11-02T06:22:42.172Z,97.39
2022-11-02T06:23:42.173Z,97.39
2022-11-02T06:24:42.173Z,97.39
2022-11-02T06:25:42.160Z,97.39
2022-11-02T06:26:42.173Z,97.39
2022-11-02T06:27:42.175Z,97.39
2022-11-02T06:28:42.174Z,97.39
2022-11-02T06:29:42.160Z,97.39
2022-11-02T06:30:42.175Z,97.4
2022-11-02T06:31:42.175Z,97.4
2022-11-02T06:32:42.160Z,97.4
2022-11-02T06:33:42.160Z,97.4
2022-11-02T06:34:42.175Z,97.4
2022-11-02T06:35:42.175Z,97.4
2022-11-02T06:36:42.161Z,97.4
2022-11-02T06:37:42.161Z,97.4
2022-11-02T06:38:42.176Z,97.4
2022-11-02T06:39:42.215Z,97.4
2022-11-02T06:40:42.162Z,97.4
2022-11-02T06:41:42.177Z,97.4
2022-11-02T06:42:42.176Z,97.4
2022-11-02T06:43:42.176Z,97.41
2022-11-02T06:44:42.162Z,97.4
2022-11-02T06:45:42.177Z,97.4
2022-11-02T06:46:42.228Z,97.41
2022-11-02T06:47:42.178Z,97.41
2022-11-02T06:48:42.163Z,97.41
2022-11-02T06:49:42.177Z,97.41
2022-11-02T06:50:42.178Z,97.41
2022-11-02T06:51:42.178Z,97.41
2022-11-02T06:52:42.164Z,97.41
2022-11-02T06:53:42.242Z,97.42
2022-11-02T06:54:42.179Z,97.42
2022-11-02T06:55:42.164Z,97.42
2022-11-02T06:56:42.166Z,97.42
2022-11-02T06:57:42.180Z,97.43
2022-11-02T06:58:42.180Z,97.43
2022-11-02T06:59:42.165Z,97.43
2022-11-02T07:00:42.179Z,97.43
2022-11-02T07:01:42.180Z,97.43
2022-11-02T07:02:42.180Z,97.43
2022-11-02T07:03:42.166Z,97.43
2022-11-02T07:04:42.180Z,97.43
2022-11-02T07:05:42.181Z,97.43
2022-11-02T07:06:42.181Z,97.43
2022-11-02T07:07:42.167Z,97.43
2022-11-02T07:08:42.181Z,97.44
2022-11-02T07:09:42.183Z,97.43
2022-11-02T07:10:42.182Z,97.43
2022-11-02T07:11:42.169Z,97.43
2022-11-02T07:12:42.182Z,97.43
2022-11-02T07:13:42.183Z,97.44
2022-11-02T07:14:42.183Z,97.43
2022-11-02T07:15:42.169Z,97.44
2022-11-02T07:16:42.184Z,97.43
2022-11-02T07:17:42.185Z,97.43
2022-11-02T07:18:42.170Z,97.43
2022-11-02T07:19:42.170Z,97.43
2022-11-02T07:20:42.184Z,97.43
2022-11-02T07:21:42.185Z,97.43
2022-11-02T07:22:42.170Z,97.43
2022-11-02T07:23:42.184Z,97.44
2022-11-02T07:24:42.185Z,97.44
2022-11-02T07:25:42.184Z,97.44
2022-11-02T07:26:42.171Z,97.45
2022-11-02T07:27:42.186Z,97.44
2022-11-02T07:28:42.187Z,97.45
2022-11-02T07:29:42.185Z,97.44
2022-11-02T07:30:42.172Z,97.44
2022-11-02T07:31:42.186Z,97.44
2022-11-02T07:32:42.187Z,97.45
2022-11-02T07:33:42.187Z,97.45
2022-11-02T07:34:42.173Z,97.44
2022-11-02T07:35:42.188Z,97.45
2022-11-02T07:36:42.188Z,97.45
2022-11-02T07:37:42.174Z,97.45
2022-11-02T07:38:42.175Z,97.45
2022-11-02T07:39:42.189Z,97.45
2022-11-02T07:40:42.190Z,97.46
2022-11-02T07:41:42.175Z,97.46
2022-11-02T07:42:42.189Z,97.45
2022-11-02T07:43:42.190Z,97.46
2022-11-02T07:44:42.190Z,97.46
2022-11-02T07:45:42.176Z,97.46
2022-11-02T07:46:42.190Z,97.46
2022-11-02T07:47:42.190Z,97.45
2022-11-02T07:48:42.191Z,97.46
2022-11-02T07:49:42.190Z,97.46
2022-11-02T07:50:42.191Z,97.46
2022-11-02T07:51:42.192Z,97.45
2022-11-02T07:52:42.192Z,97.46
2022-11-02T07:53:42.178Z,97.46
2022-11-02T07:54:42.193Z,97.46
2022-11-02T07:55:42.193Z,97.46
2022-11-02T07:56:42.193Z,97.46
2022-11-02T07:57:42.180Z,97.46
2022-11-02T07:58:42.194Z,97.46
2022-11-02T07:59:42.194Z,97.46
2022-11-02T08:00:42.180Z,97.46
2022-11-02T08:01:42.180Z,97.46
2022-11-02T08:02:42.195Z,97.46
2022-11-02T08:03:42.218Z,97.46
2022-11-02T08:04:42.181Z,97.46
2022-11-02T08:05:42.196Z,97.46
2022-11-02T08:06:42.196Z,97.46
2022-11-02T08:07:42.196Z,97.45
2022-11-02T08:08:42.182Z,97.45
2022-11-02T08:09:42.196Z,97.45
2022-11-02T08:10:42.197Z,97.45
2022-11-02T08:11:42.196Z,97.45
2022-11-02T08:12:42.183Z,97.45
2022-11-02T08:13:42.198Z,97.46
2022-11-02T08:14:42.198Z,97.46
2022-11-02T08:15:42.197Z,97.46
2022-11-02T08:16:42.185Z,97.46
2022-11-02T08:17:42.198Z,97.46
2022-11-02T08:18:42.199Z,97.46
2022-11-02T08:19:42.185Z,97.46
2022-11-02T08:20:42.185Z,97.47
2022-11-02T08:21:42.200Z,97.46
2022-11-02T08:22:42.200Z,97.46
2022-11-02T08:23:42.186Z,97.46
2022-11-02T08:24:42.187Z,97.46
2022-11-02T08:25:42.201Z,97.46
2022-11-02T08:26:42.210Z,97.47
2022-11-02T08:27:42.187Z,97.47
2022-11-02T08:28:42.202Z,97.47
2022-11-02T08:29:42.202Z,97.47
2022-11-02T08:30:42.203Z,97.47
2022-11-02T08:31:42.188Z,97.47
2022-11-02T08:32:42.204Z,97.47
2022-11-02T08:33:42.229Z,97.47
2022-11-02T08:34:42.203Z,97.47
2022-11-02T08:35:42.190Z,97.47
2022-11-02T08:36:42.205Z,97.47
2022-11-02T08:37:42.205Z,97.48
2022-11-02T08:38:42.204Z,97.48
2022-11-02T08:39:42.191Z,97.49
2022-11-02T08:40:42.230Z,97.49
2022-11-02T08:41:42.207Z,97.49
2022-11-02T08:42:42.192Z,97.48
2022-11-02T08:43:42.192Z,97.48
2022-11-02T08:44:42.207Z,97.48
2022-11-02T08:45:42.207Z,97.49
2022-11-02T08:46:42.193Z,97.48
2022-11-02T08:47:42.249Z,97.48
2022-11-02T08:48:42.208Z,97.48
2022-11-02T08:49:42.207Z,97.48
2022-11-02T08:50:42.194Z,97.48
2022-11-02T08:51:42.208Z,97.48
2022-11-02T08:52:42.209Z,97.48
2022-11-02T08:53:42.210Z,97.48
2022-11-02T08:54:42.195Z,97.48
2022-11-02T08:55:42.210Z,97.48
2022-11-02T08:57:42.210Z,97.48
2022-11-02T08:58:42.196Z,97.48
2022-11-02T08:59:42.211Z,97.48
2022-11-02T09:00:42.212Z,97.48
2022-11-02T09:01:42.211Z,97.48
2022-11-02T09:02:42.198Z,97.47
2022-11-02T09:03:42.213Z,97.48
2022-11-02T09:04:42.213Z,97.48
2022-11-02T09:05:42.199Z,97.48
2022-11-02T09:06:42.200Z,97.47
2022-11-02T09:07:42.214Z,97.48
2022-11-02T09:08:42.215Z,97.48
2022-11-02T09:09:42.200Z,97.48
2022-11-02T09:10:42.214Z,97.48
2022-11-02T09:11:42.215Z,97.48
2022-11-02T09:12:42.214Z,97.49
2022-11-02T09:13:42.201Z,97.49
2022-11-02T09:14:42.215Z,97.49
2022-11-02T09:15:42.242Z,97.49
2022-11-02T09:16:42.216Z,97.49
2022-11-02T09:17:42.202Z,97.49
2022-11-02T09:18:42.216Z,97.49
2022-11-02T09:19:42.218Z,97.49
2022-11-02T09:20:42.218Z,97.49
2022-11-02T09:21:42.204Z,97.49
2022-11-02T09:22:42.259Z,97.49
2022-11-02T09:23:42.219Z,97.5
2022-11-02T09:24:42.205Z,97.5
2022-11-02T09:25:42.206Z,97.5
2022-11-02T09:26:42.219Z,97.5
2022-11-02T09:27:42.221Z,97.49
2022-11-02T09:28:42.206Z,97.49
2022-11-02T09:29:42.220Z,97.5
2022-11-02T09:30:42.221Z,97.49
2022-11-02T09:31:42.221Z,97.49
2022-11-02T09:32:42.207Z,97.49
2022-11-02T09:33:42.221Z,97.5
2022-11-02T09:34:42.222Z,97.5
2022-11-02T09:35:42.222Z,97.5
2022-11-02T09:36:42.208Z,97.5
2022-11-02T09:37:42.223Z,97.5
2022-11-02T09:38:42.224Z,97.49
2022-11-02T09:39:42.224Z,97.49
2022-11-02T09:40:42.211Z,97.49
2022-11-02T09:41:42.224Z,97.49
2022-11-02T09:42:42.225Z,97.49
2022-11-02T09:43:42.211Z,97.49
2022-11-02T09:44:42.211Z,97.49
2022-11-02T09:45:42.226Z,97.49
2022-11-02T09:46:42.227Z,97.49
2022-11-02T09:47:42.212Z,97.49
2022-11-02T09:48:42.212Z,97.49
2022-11-02T09:49:42.227Z,97.49
2022-11-02T09:50:42.228Z,97.49
2022-11-02T09:51:42.213Z,97.5
2022-11-02T09:52:42.228Z,97.49
2022-11-02T09:53:42.229Z,97.5
2022-11-02T09:54:42.228Z,97.5
2022-11-02T09:55:42.215Z,97.5
2022-11-02T09:56:42.229Z,97.5
2022-11-02T09:57:42.229Z,97.5
2022-11-02T09:58:42.230Z,97.5
2022-11-02T09:59:42.216Z,97.5
2022-11-02T10:00:42.231Z,97.5
2022-11-02T10:01:42.232Z,97.5
2022-11-02T10:02:42.231Z,97.5
2022-11-02T10:03:42.217Z,97.5
2022-11-02T10:04:42.232Z,97.5
2022-11-02T10:05:42.233Z,97.5
2022-11-02T10:06:42.218Z,97.5
2022-11-02T10:07:42.219Z,97.49
2022-11-02T10:08:42.234Z,97.5
2022-11-02T10:09:42.235Z,97.5
2022-11-02T10:10:42.220Z,97.49
2022-11-02T10:11:42.220Z,97.49
2022-11-02T10:13:42.236Z,97.5
2022-11-02T10:14:42.221Z,97.5
2022-11-02T10:15:42.236Z,97.5
2022-11-02T10:16:42.237Z,97.5
2022-11-02T10:17:42.237Z,97.5
2022-11-02T10:18:42.223Z,97.5
2022-11-02T10:19:42.237Z,97.51
2022-11-02T10:20:42.239Z,97.51
2022-11-02T10:21:42.237Z,97.5
2022-11-02T10:22:42.224Z,97.51
2022-11-02T10:23:42.238Z,97.5
2022-11-02T10:24:42.239Z,97.51
2022-11-02T10:25:42.240Z,97.51
2022-11-02T10:26:42.226Z,97.5
2022-11-02T10:27:42.240Z,97.51
2022-11-02T10:28:42.242Z,97.51
2022-11-02T10:29:42.226Z,97.51
2022-11-02T10:30:42.227Z,97.51
2022-11-02T10:31:42.242Z,97.51
2022-11-02T10:32:42.242Z,97.51
2022-11-02T10:33:42.228Z,97.51
2022-11-02T10:34:42.243Z,97.51
2022-11-02T10:35:42.242Z,97.51
2022-11-02T10:36:42.243Z,97.5
2022-11-02T10:37:42.229Z,97.51
2022-11-02T10:38:42.244Z,97.51
2022-11-02T10:39:42.244Z,97.51
2022-11-02T10:40:42.244Z,97.51
2022-11-02T10:41:42.231Z,97.52
2022-11-02T10:42:42.244Z,97.51
2022-11-02T10:43:42.247Z,97.52
2022-11-02T10:44:42.245Z,97.51
2022-11-02T10:45:42.232Z,97.51
2022-11-02T10:46:42.246Z,97.51
2022-11-02T10:47:42.247Z,97.51
2022-11-02T10:48:42.233Z,97.51
2022-11-02T10:49:42.233Z,97.51
2022-11-02T10:50:42.247Z,97.51
2022-11-02T10:51:42.248Z,97.51
2022-11-02T10:52:42.234Z,97.5
2022-11-02T10:53:42.312Z,97.51
2022-11-02T10:54:42.249Z,97.5
2022-11-02T10:55:42.250Z,97.5
2022-11-02T10:56:42.235Z,97.5
2022-11-02T10:57:42.250Z,97.5
2022-11-02T10:58:42.250Z,97.5
2022-11-02T10:59:42.251Z,97.5
2022-11-02T11:00:42.237Z,97.5
2022-11-02T11:01:42.251Z,97.5
2022-11-02T11:02:42.253Z,97.51
2022-11-02T11:03:42.251Z,97.5
2022-11-02T11:04:42.238Z,97.5
2022-11-02T11:05:42.252Z,97.5
2022-11-02T11:06:42.254Z,97.49
2022-11-02T11:07:42.254Z,97.49
2022-11-02T11:08:42.240Z,97.49
2022-11-02T11:09:42.254Z,97.49
2022-11-02T11:10:42.255Z,97.5
2022-11-02T11:11:42.240Z,97.49
2022-11-02T11:12:42.242Z,97.49
2022-11-02T11:13:42.256Z,97.5
2022-11-02T11:14:42.256Z,97.49
2022-11-02T11:15:42.242Z,97.49
2022-11-02T11:16:42.257Z,97.48
2022-11-02T11:17:42.257Z,97.48
2022-11-02T11:18:42.256Z,97.49
2022-11-02T11:19:42.243Z,97.48
2022-11-02T11:20:42.257Z,97.49
2022-11-02T11:21:42.258Z,97.48
2022-11-02T11:22:42.259Z,97.48
2022-11-02T11:23:42.244Z,97.48
2022-11-02T11:24:42.259Z,97.48
2022-11-02T11:25:42.261Z,97.48
2022-11-02T11:26:51.517Z,97.48
2022-11-02T11:27:42.246Z,97.48
2022-11-02T11:28:42.261Z,97.49
2022-11-02T11:29:42.261Z,97.49
2022-11-02T11:30:42.262Z,97.49
2022-11-02T11:31:42.248Z,97.49
2022-11-02T11:32:42.262Z,97.49
2022-11-02T11:33:42.264Z,97.49
2022-11-02T11:34:42.248Z,97.49
2022-11-02T11:35:42.250Z,97.49
2022-11-02T11:36:42.264Z,97.49
2022-11-02T11:37:42.328Z,97.49
2022-11-02T11:38:42.250Z,97.49
2022-11-02T11:39:42.265Z,97.5
2022-11-02T11:40:42.265Z,97.5
2022-11-02T11:41:42.264Z,97.49
2022-11-02T11:42:42.251Z,97.49
2022-11-02T11:43:42.265Z,97.49
2022-11-02T11:44:42.265Z,97.49
2022-11-02T11:45:42.266Z,97.49
2022-11-02T11:46:42.252Z,97.48
2022-11-02T11:47:42.268Z,97.48
2022-11-02T11:48:42.268Z,97.48
2022-11-02T11:49:42.267Z,97.49
2022-11-02T11:50:42.254Z,97.49
2022-11-02T11:51:42.268Z,97.48
2022-11-02T11:52:42.269Z,97.48
2022-11-02T11:53:42.255Z,97.48
2022-11-02T11:54:42.256Z,97.49
2022-11-02T11:55:42.270Z,97.49
2022-11-02T11:56:42.270Z,97.49
2022-11-02T11:57:42.256Z,97.49
2022-11-02T11:58:42.256Z,97.49
2022-11-02T11:59:42.272Z,97.49
2022-11-02T12:00:42.271Z,97.49
2022-11-02T12:01:42.257Z,97.49
2022-11-02T12:02:42.272Z,97.49
2022-11-02T12:03:42.273Z,97.49
2022-11-02T12:04:42.273Z,97.49
2022-11-02T12:05:42.259Z,97.49
2022-11-02T12:06:42.273Z,97.5
2022-11-02T12:07:42.276Z,97.49
2022-11-02T12:08:42.274Z,97.49
2022-11-02T12:09:42.260Z,97.5
2022-11-02T12:10:42.275Z,97.5
2022-11-02T12:11:42.277Z,97.5
2022-11-02T12:12:42.275Z,97.49
2022-11-02T12:13:42.262Z,97.49
2022-11-02T12:14:42.300Z,97.48
2022-11-02T12:15:42.277Z,97.48
2022-11-02T12:16:42.263Z,97.48
2022-11-02T12:17:42.263Z,97.48
2022-11-02T12:18:42.278Z,97.49
2022-11-02T12:19:42.279Z,97.49
2022-11-02T12:20:42.264Z,97.48
2022-11-02T12:21:42.264Z,97.48
2022-11-02T12:22:42.279Z,97.48
2022-11-02T12:23:42.279Z,97.47
2022-11-02T12:24:42.265Z,97.48
2022-11-02T12:25:42.279Z,97.47
2022-11-02T12:26:42.281Z,97.47
2022-11-02T12:27:42.281Z,97.47
2022-11-02T12:28:42.267Z,97.47
2022-11-02T12:29:42.281Z,97.47
2022-11-02T12:30:42.281Z,97.47
2022-11-02T12:31:42.282Z,97.47
2022-11-02T12:32:42.282Z,97.47
2022-11-02T12:33:42.283Z,97.47
2022-11-02T12:34:42.284Z,97.47
2022-11-02T12:35:42.284Z,97.48
2022-11-02T12:36:42.269Z,97.47
2022-11-02T12:37:42.284Z,97.47
2022-11-02T12:38:42.285Z,97.46
2022-11-02T12:39:42.271Z,97.44
2022-11-02T12:40:42.272Z,97.43
2022-11-02T12:41:42.286Z,97.43
2022-11-02T12:42:42.287Z,97.42
2022-11-02T12:43:42.273Z,97.42
2022-11-02T12:44:42.273Z,97.42
2022-11-02T12:45:42.288Z,97.41
2022-11-02T12:46:42.287Z,97.42
2022-11-02T12:47:42.274Z,97.42
2022-11-02T12:48:42.288Z,97.42
2022-11-02T12:49:42.290Z,97.41
2022-11-02T12:50:42.290Z,97.41
2022-11-02T12:51:42.276Z,97.42
2022-11-02T12:52:42.290Z,97.41
2022-11-02T12:53:42.317Z,97.41
2022-11-02T12:54:42.292Z,97.41
2022-11-02T12:55:42.278Z,97.4
2022-11-02T12:56:42.292Z,97.41
2022-11-02T12:57:42.295Z,97.42
2022-11-02T12:58:42.294Z,97.42